Time;durP1;ratioP1;P1;durP2;ratioP2;P2;SDS_P1;SDS_P2;PMS_P1;PMS_P2;Temp;Humidity;BMP_temperature;BMP_pressure;BME280_temperature;BME280_humidity;BME280_pressure;Samples;Min_cycle;Max_cycle;Signal;HPM_P1;HPM_P2
2022/05/12 00:00:27;;;;;;;7.38;2.17;;;23.10;62.70;;;;;;4958556;28;20031;-89
2022/05/12 00:02:54;;;;;;;3.17;2.22;;;23.10;63.10;;;;;;4974423;28;20071;-91
2022/05/12 00:05:20;;;;;;;3.90;2.30;;;23.10;63.40;;;;;;4974319;28;20031;-88
2022/05/12 00:07:46;;;;;;;3.40;2.30;;;23.10;63.60;;;;;;4974646;28;20041;-89
2022/05/12 00:10:15;;;;;;;4.78;1.95;;;23.00;63.90;;;;;;4973940;28;20030;-89
2022/05/12 00:12:41;;;;;;;4.28;2.40;;;23.00;64.00;;;;;;4973485;28;20086;-90
2022/05/12 00:15:13;;;;;;;4.78;1.77;;;23.00;64.20;;;;;;4973995;28;20080;-91
2022/05/12 00:17:39;;;;;;;6.88;2.13;;;23.00;64.50;;;;;;4973952;28;20098;-90
2022/05/12 00:20:06;;;;;;;4.53;2.58;;;22.90;64.70;;;;;;4975066;28;20086;-91
2022/05/12 00:22:32;;;;;;;2.92;2.03;;;22.90;65.00;;;;;;4973245;28;20046;-91
2022/05/12 00:24:57;;;;;;;4.43;1.90;;;22.90;65.30;;;;;;4974211;28;20126;-93
2022/05/12 00:27:23;;;;;;;3.17;2.17;;;22.80;65.50;;;;;;4974120;28;20117;-90
2022/05/12 00:29:49;;;;;;;4.70;2.20;;;22.80;65.60;;;;;;4957315;28;20077;-91
2022/05/12 00:32:14;;;;;;;2.78;1.95;;;22.80;65.90;;;;;;4974051;28;20031;-91
2022/05/12 00:34:40;;;;;;;2.95;2.00;;;22.80;66.20;;;;;;4973585;28;20023;-89
2022/05/12 00:37:05;;;;;;;3.38;2.13;;;22.80;66.50;;;;;;4975306;28;20038;-86
2022/05/12 00:39:31;;;;;;;3.38;2.03;;;22.80;66.60;;;;;;4973618;28;20030;-87
2022/05/12 00:41:57;;;;;;;5.55;2.00;;;22.70;66.90;;;;;;4974866;28;20173;-86
2022/05/12 00:44:22;;;;;;;2.67;1.85;;;22.70;67.10;;;;;;4957911;28;20034;-86
2022/05/12 00:46:52;;;;;;;3.75;2.35;;;22.70;67.50;;;;;;4957364;28;20031;-86
2022/05/12 00:49:50;;;;;;;3.92;2.13;;;22.60;67.70;;;;;;4974733;28;20345;-87
2022/05/12 00:52:29;;;;;;;3.05;1.80;;;22.50;67.90;;;;;;4952373;28;20038;-86
2022/05/12 00:55:14;;;;;;;2.50;1.83;;;22.50;68.40;;;;;;4973335;28;20559;-87
2022/05/12 00:57:48;;;;;;;3.50;2.35;;;22.50;68.50;;;;;;4957412;28;20385;-86
2022/05/12 01:00:15;;;;;;;2.80;2.03;;;22.60;68.70;;;;;;4957861;28;20046;-87
2022/05/12 01:02:44;;;;;;;3.70;1.90;;;22.60;68.80;;;;;;4973283;28;20035;-87
2022/05/12 01:05:11;;;;;;;4.75;2.10;;;22.50;68.90;;;;;;4973693;28;20029;-87
2022/05/12 01:07:37;;;;;;;5.15;2.10;;;22.50;69.00;;;;;;4972948;28;20035;-87
2022/05/12 01:10:05;;;;;;;3.83;2.13;;;22.50;69.10;;;;;;4974827;28;20436;-87
2022/05/12 01:12:31;;;;;;;4.10;2.00;;;22.50;68.90;;;;;;4973507;28;20506;-88
2022/05/12 01:14:57;;;;;;;5.88;2.33;;;22.40;68.70;;;;;;4956667;28;20033;-87
2022/05/12 01:17:24;;;;;;;4.72;1.85;;;22.40;68.50;;;;;;4973860;28;20531;-87
2022/05/12 01:19:51;;;;;;;4.97;1.80;;;22.30;68.50;;;;;;4977280;28;20027;-87
2022/05/12 01:22:36;;;;;;;6.78;1.98;;;22.30;68.00;;;;;;4976932;28;20093;-87
2022/05/12 01:25:07;;;;;;;3.90;1.52;;;22.30;67.40;;;;;;4977880;28;20027;-86
2022/05/12 01:27:33;;;;;;;3.92;1.55;;;22.20;66.90;;;;;;4977036;28;20055;-87
2022/05/12 01:29:58;;;;;;;3.33;1.45;;;22.10;66.40;;;;;;4976916;28;20039;-87
2022/05/12 01:32:27;;;;;;;2.90;1.38;;;22.20;66.00;;;;;;4976785;28;20041;-86
2022/05/12 01:34:53;;;;;;;3.60;1.55;;;22.20;65.80;;;;;;4976607;28;20035;-87
2022/05/12 01:37:20;;;;;;;2.10;1.00;;;22.20;65.50;;;;;;4977075;28;20392;-87
2022/05/12 01:39:46;;;;;;;1.77;1.10;;;22.10;65.10;;;;;;4977286;28;20026;-88
2022/05/12 01:42:12;;;;;;;4.32;1.13;;;22.00;64.80;;;;;;4976897;28;20033;-88
2022/05/12 01:44:39;;;;;;;2.75;1.10;;;22.00;65.00;;;;;;4960354;28;20029;-90
2022/05/12 01:47:06;;;;;;;2.45;1.10;;;22.00;65.00;;;;;;4960603;28;20041;-90
2022/05/12 01:49:32;;;;;;;3.80;1.33;;;21.90;65.20;;;;;;4976527;28;20499;-90
2022/05/12 01:52:00;;;;;;;4.25;1.45;;;22.00;65.00;;;;;;4976040;28;20130;-91
2022/05/12 01:54:27;;;;;;;1.88;1.08;;;21.90;65.20;;;;;;4976965;28;20048;-87
2022/05/12 01:56:54;;;;;;;3.22;1.10;;;21.90;65.20;;;;;;4975953;28;20034;-89
2022/05/12 01:59:20;;;;;;;2.42;1.13;;;21.90;65.50;;;;;;4976604;28;20030;-90
2022/05/12 02:01:47;;;;;;;1.85;1.17;;;21.90;65.60;;;;;;4976011;28;20384;-91
2022/05/12 02:04:13;;;;;;;1.92;1.20;;;21.90;65.80;;;;;;4976619;28;20022;-87
2022/05/12 02:06:39;;;;;;;3.72;1.10;;;21.80;66.00;;;;;;4959698;28;20039;-87
2022/05/12 02:09:06;;;;;;;1.60;1.10;;;21.80;66.00;;;;;;4976104;28;20495;-88
2022/05/12 02:11:32;;;;;;;2.05;1.02;;;21.80;66.30;;;;;;4976169;28;20476;-88
2022/05/12 02:13:57;;;;;;;3.60;1.20;;;21.80;66.40;;;;;;4975708;28;20030;-87
2022/05/12 02:16:25;;;;;;;2.03;1.20;;;21.70;66.40;;;;;;4977223;28;20027;-88
2022/05/12 02:18:52;;;;;;;2.95;1.10;;;21.70;66.60;;;;;;4976338;28;20428;-87
2022/05/12 02:21:18;;;;;;;2.58;1.23;;;21.70;67.40;;;;;;4976040;28;20051;-87
2022/05/12 02:23:44;;;;;;;2.05;1.10;;;21.60;66.80;;;;;;4975474;28;20031;-89
2022/05/12 02:26:10;;;;;;;1.50;1.23;;;21.60;67.00;;;;;;4959890;28;20090;-89
2022/05/12 02:28:36;;;;;;;1.83;0.75;;;21.60;67.10;;;;;;4975596;28;20031;-89
2022/05/12 02:31:02;;;;;;;2.50;1.00;;;21.50;67.20;;;;;;4959110;28;20538;-89
2022/05/12 02:33:27;;;;;;;2.50;1.05;;;21.50;67.20;;;;;;4975856;28;20038;-88
2022/05/12 02:35:53;;;;;;;1.02;0.77;;;21.50;67.40;;;;;;4959229;28;20384;-88
2022/05/12 02:38:19;;;;;;;2.72;1.00;;;21.40;67.20;;;;;;4975665;28;20027;-88
2022/05/12 02:40:45;;;;;;;4.78;1.02;;;21.40;68.30;;;;;;4976276;28;20129;-89
2022/05/12 02:43:23;;;;;;;1.90;1.00;;;21.30;67.80;;;;;;4975687;28;20381;-89
2022/05/12 02:45:56;;;;;;;3.85;1.05;;;21.30;67.90;;;;;;4975039;28;20023;-85
2022/05/12 02:48:26;;;;;;;2.80;1.00;;;21.30;68.10;;;;;;4975497;28;20027;-88
2022/05/12 02:50:53;;;;;;;2.30;1.00;;;21.30;68.30;;;;;;4974675;28;20030;-88
2022/05/12 02:53:19;;;;;;;1.33;0.93;;;21.30;68.50;;;;;;4975546;28;20472;-87
2022/05/12 02:55:45;;;;;;;1.23;0.90;;;21.20;68.90;;;;;;4974818;28;20043;-86
2022/05/12 02:58:12;;;;;;;3.45;1.00;;;21.20;69.10;;;;;;4975107;28;20030;-85
2022/05/12 03:00:38;;;;;;;1.95;1.08;;;21.20;69.40;;;;;;4975241;28;20084;-85
2022/05/12 03:03:08;;;;;;;2.40;1.00;;;21.20;69.40;;;;;;4959148;28;20027;-86
2022/05/12 03:05:35;;;;;;;3.22;0.98;;;21.10;69.40;;;;;;4976205;28;20034;-86
2022/05/12 03:08:01;;;;;;;0.88;0.85;;;21.10;69.50;;;;;;4974487;28;20121;-87
2022/05/12 03:10:29;;;;;;;4.57;0.90;;;21.10;69.60;;;;;;4975039;28;20464;-87
2022/05/12 03:12:54;;;;;;;4.45;1.00;;;21.10;70.00;;;;;;4974504;28;20035;-88
2022/05/12 03:15:20;;;;;;;1.60;1.20;;;21.00;70.20;;;;;;4976043;28;20031;-87
2022/05/12 03:17:46;;;;;;;3.70;0.98;;;21.00;70.70;;;;;;4975552;28;20396;-85
2022/05/12 03:20:15;;;;;;;4.75;1.00;;;21.00;70.70;;;;;;4975065;28;20031;-85
2022/05/12 03:22:41;;;;;;;1.00;0.90;;;21.00;70.80;;;;;;4974197;28;20133;-87
2022/05/12 03:25:10;;;;;;;1.63;1.00;;;20.90;70.90;;;;;;4975179;28;20089;-88
2022/05/12 03:27:36;;;;;;;4.22;1.30;;;20.90;71.20;;;;;;4975084;28;20022;-88
2022/05/12 03:30:07;;;;;;;1.30;0.90;;;20.90;71.50;;;;;;4974293;28;20034;-87
2022/05/12 03:32:33;;;;;;;1.73;1.05;;;20.80;71.70;;;;;;4975709;28;20030;-86
2022/05/12 03:34:58;;;;;;;1.30;1.00;;;20.70;72.00;;;;;;4974022;28;20026;-87
2022/05/12 03:37:24;;;;;;;1.90;0.77;;;20.70;72.20;;;;;;4974840;28;20062;-86
2022/05/12 03:39:49;;;;;;;1.40;0.90;;;20.70;72.30;;;;;;4973590;28;20030;-87
2022/05/12 03:42:16;;;;;;;1.92;0.90;;;20.70;72.40;;;;;;4957083;28;20067;-88
2022/05/12 03:44:53;;;;;;;3.47;0.88;;;20.70;72.70;;;;;;4973546;28;20023;-87
2022/05/12 03:47:27;;;;;;;1.10;0.60;;;20.60;72.80;;;;;;4974916;28;20030;-87
2022/05/12 03:50:01;;;;;;;1.98;0.80;;;20.50;73.30;;;;;;4963335;28;20114;-88
2022/05/12 03:52:27;;;;;;;2.70;0.90;;;20.50;73.40;;;;;;4956320;29;20031;-88
2022/05/12 03:54:53;;;;;;;2.88;0.88;;;20.50;73.60;;;;;;4954647;29;20054;-88
2022/05/12 03:57:21;;;;;;;3.13;1.08;;;20.50;73.80;;;;;;4954490;29;20024;-88
2022/05/12 03:59:48;;;;;;;1.92;0.80;;;20.40;74.10;;;;;;4954599;29;20118;-88
2022/05/12 04:02:17;;;;;;;2.17;0.98;;;20.40;75.00;;;;;;4955605;29;20055;-87
2022/05/12 04:04:46;;;;;;;3.60;1.08;;;20.40;74.80;;;;;;4938831;29;20030;-88
2022/05/12 04:07:13;;;;;;;4.07;1.23;;;20.30;74.90;;;;;;4955037;29;20031;-87
2022/05/12 04:09:39;;;;;;;5.43;1.50;;;20.30;75.30;;;;;;4954947;29;20035;-87
2022/05/12 04:12:09;;;;;;;2.28;1.20;;;20.30;75.80;;;;;;4954246;29;20058;-87
2022/05/12 04:14:36;;;;;;;1.13;1.02;;;20.30;76.10;;;;;;4954623;29;20093;-87
2022/05/12 04:17:02;;;;;;;3.00;0.90;;;20.20;76.30;;;;;;4938028;29;20034;-87
2022/05/12 04:19:28;;;;;;;1.50;0.80;;;20.20;76.50;;;;;;4954625;29;20027;-86
2022/05/12 04:21:54;;;;;;;4.40;0.70;;;20.10;76.90;;;;;;4954084;29;20050;-87
2022/05/12 04:24:20;;;;;;;1.13;0.70;;;20.10;77.10;;;;;;4954724;29;20397;-91
2022/05/12 04:26:46;;;;;;;3.38;1.00;;;20.10;77.40;;;;;;4955548;29;20028;-88
2022/05/12 04:29:13;;;;;;;1.83;0.82;;;20.10;78.00;;;;;;4954638;29;20039;-90
2022/05/12 04:31:39;;;;;;;5.57;1.30;;;20.00;78.60;;;;;;4955707;29;20110;-89
2022/05/12 04:36:49;;;;;;;1.45;0.75;;;20.00;79.20;;;;;;4955044;29;20074;-87
2022/05/12 04:39:15;;;;;;;3.47;1.58;;;20.00;79.40;;;;;;4954858;29;20044;-86
2022/05/12 04:41:41;;;;;;;2.55;0.93;;;20.00;79.80;;;;;;4938700;29;20059;-86
2022/05/12 04:44:07;;;;;;;5.25;1.15;;;20.10;79.90;;;;;;4954282;29;20039;-86
2022/05/12 04:46:34;;;;;;;4.28;0.98;;;20.00;80.30;;;;;;4938831;29;20027;-87
2022/05/12 04:49:01;;;;;;;3.53;1.55;;;20.00;80.60;;;;;;4955207;29;20134;-86
2022/05/12 04:51:27;;;;;;;2.92;0.93;;;20.00;80.70;;;;;;4938598;29;20031;-87
2022/05/12 04:53:52;;;;;;;4.78;1.35;;;20.10;80.90;;;;;;4941304;29;20030;-88
2022/05/12 04:56:18;;;;;;;1.75;0.90;;;20.00;81.50;;;;;;4958243;29;20388;-86
2022/05/12 04:58:44;;;;;;;1.48;0.80;;;20.00;81.80;;;;;;4959456;29;20055;-87
2022/05/12 05:01:09;;;;;;;6.00;1.05;;;20.00;82.00;;;;;;4958564;29;20027;-84
2022/05/12 05:03:35;;;;;;;1.00;0.77;;;20.00;82.40;;;;;;4958046;29;20070;-89
2022/05/12 05:06:01;;;;;;;2.88;0.98;;;20.00;82.90;;;;;;4957766;29;20098;-90
2022/05/12 05:08:27;;;;;;;1.80;0.65;;;20.00;83.40;;;;;;4958122;29;20082;-89
2022/05/12 05:10:53;;;;;;;1.65;0.80;;;20.00;83.60;;;;;;4957491;29;20432;-90
2022/05/12 05:13:21;;;;;;;1.60;0.85;;;20.10;83.70;;;;;;4957829;29;20104;-88
2022/05/12 05:15:47;;;;;;;1.98;0.70;;;20.00;84.10;;;;;;4957613;29;20119;-87
2022/05/12 05:18:16;;;;;;;3.38;0.93;;;20.00;84.40;;;;;;4957698;29;20074;-85
2022/05/12 05:20:43;;;;;;;2.97;0.90;;;20.00;84.70;;;;;;4958561;29;20031;-86
2022/05/12 05:23:09;;;;;;;2.42;0.70;;;20.00;85.20;;;;;;4957200;29;20041;-85
2022/05/12 05:25:34;;;;;;;1.77;0.75;;;20.00;85.50;;;;;;4958880;29;20098;-90
2022/05/12 05:28:00;;;;;;;3.67;0.82;;;20.00;86.00;;;;;;4958355;29;20385;-90
2022/05/12 05:30:27;;;;;;;0.88;0.80;;;19.90;86.20;;;;;;4958557;29;20050;-86
2022/05/12 05:32:54;;;;;;;3.40;0.90;;;20.00;86.40;;;;;;4957847;29;20081;-86
2022/05/12 05:35:20;;;;;;;1.40;0.70;;;20.00;86.60;;;;;;4957484;29;20055;-86
2022/05/12 05:37:47;;;;;;;4.03;1.00;;;20.00;86.90;;;;;;4957567;29;20027;-86
2022/05/12 05:40:15;;;;;;;3.97;1.00;;;20.00;87.20;;;;;;4959682;28;20490;-85
2022/05/12 05:42:43;;;;;;;1.13;0.82;;;20.00;87.30;;;;;;4957369;29;20082;-85
2022/05/12 05:45:15;;;;;;;1.88;0.98;;;20.00;87.70;;;;;;4956906;29;20031;-86
2022/05/12 05:47:46;;;;;;;1.23;0.80;;;20.00;88.30;;;;;;4957598;29;20020;-86
2022/05/12 05:50:15;;;;;;;2.92;1.02;;;19.90;88.50;;;;;;4956722;29;20035;-88
2022/05/12 05:55:25;;;;;;;3.58;0.82;;;19.90;89.40;;;;;;4958080;29;20086;-87
2022/05/12 05:57:51;;;;;;;3.60;0.80;;;20.00;89.40;;;;;;4957437;29;20481;-90
2022/05/12 06:00:17;;;;;;;3.13;0.80;;;20.00;89.30;;;;;;4957361;29;20089;-88
2022/05/12 06:02:43;;;;;;;2.15;0.70;;;20.00;89.70;;;;;;4958300;29;20102;-88
2022/05/12 06:05:10;;;;;;;2.47;0.80;;;20.00;90.10;;;;;;4956219;28;20425;-89
2022/05/12 06:07:38;;;;;;;2.05;0.60;;;20.00;90.30;;;;;;4956832;29;20066;-88
2022/05/12 06:10:06;;;;;;;2.70;0.70;;;20.00;90.40;;;;;;4964119;28;20129;-88
2022/05/12 06:12:33;;;;;;;1.58;0.70;;;19.90;90.40;;;;;;4964398;28;20035;-87
2022/05/12 06:14:59;;;;;;;3.65;0.70;;;20.00;90.50;;;;;;4966846;28;20026;-87
2022/05/12 06:17:24;;;;;;;3.65;0.60;;;20.00;90.40;;;;;;4967821;28;20384;-85
2022/05/12 06:19:50;;;;;;;1.67;0.73;;;20.10;90.50;;;;;;4970270;28;20058;-85
2022/05/12 06:22:20;;;;;;;2.78;0.60;;;20.10;90.80;;;;;;4975832;28;20137;-85
2022/05/12 06:24:50;;;;;;;3.17;0.73;;;20.10;91.00;;;;;;4992378;28;20491;-84
2022/05/12 06:27:19;;;;;;;1.35;0.73;;;20.10;90.90;;;;;;4991528;28;20038;-87
2022/05/12 06:29:45;;;;;;;3.00;0.88;;;20.10;90.90;;;;;;4974146;28;20043;-89
2022/05/12 06:32:12;;;;;;;2.58;0.75;;;20.20;90.90;;;;;;4959766;28;20531;-90
2022/05/12 06:34:41;;;;;;;2.53;0.45;;;20.20;91.00;;;;;;4976062;28;20027;-89
2022/05/12 06:37:08;;;;;;;2.70;0.68;;;20.20;90.60;;;;;;4974925;28;20476;-91
2022/05/12 06:39:33;;;;;;;1.60;0.63;;;20.30;90.50;;;;;;4975769;28;20042;-89
2022/05/12 06:41:59;;;;;;;2.80;0.60;;;20.30;90.30;;;;;;4959405;28;20027;-89
2022/05/12 06:44:25;;;;;;;3.08;0.70;;;20.30;90.20;;;;;;4959691;28;20042;-89
2022/05/12 06:46:51;;;;;;;2.92;0.80;;;20.30;90.40;;;;;;4971303;28;20062;-88
2022/05/12 06:49:17;;;;;;;4.85;0.70;;;20.20;90.20;;;;;;4956832;28;20042;-89
2022/05/12 06:51:45;;;;;;;2.08;0.70;;;20.20;89.30;;;;;;4971573;28;20494;-88
2022/05/12 06:54:11;;;;;;;2.88;0.70;;;20.10;90.00;;;;;;4968473;28;20413;-88
2022/05/12 06:56:36;;;;;;;2.85;0.52;;;20.10;90.10;;;;;;4948397;28;20114;-85
2022/05/12 06:59:02;;;;;;;3.15;1.67;;;20.00;90.00;;;;;;4967371;28;20050;-89
2022/05/12 07:01:28;;;;;;;1.05;0.70;;;19.90;90.10;;;;;;4971779;28;20028;-85
2022/05/12 07:03:57;;;;;;;1.52;0.70;;;20.00;90.30;;;;;;4969212;28;20460;-90
2022/05/12 07:06:23;;;;;;;2.85;0.82;;;20.00;90.50;;;;;;4956003;28;20035;-92
2022/05/12 07:08:49;;;;;;;3.70;0.90;;;19.90;90.60;;;;;;4965268;28;20031;-92
2022/05/12 07:11:14;;;;;;;1.40;0.63;;;20.00;91.10;;;;;;4964868;28;20066;-93
2022/05/12 07:13:40;;;;;;;4.35;0.80;;;20.00;90.40;;;;;;4967422;28;20081;-93
2022/05/12 07:16:07;;;;;;;1.13;0.50;;;20.00;90.50;;;;;;4955309;28;20481;-92
2022/05/12 07:18:37;;;;;;;3.28;0.50;;;20.10;90.00;;;;;;4957696;28;20383;-91
2022/05/12 07:26:36;;;;;;;1.33;0.60;;;20.20;89.50;;;;;;4964074;28;20077;-92
2022/05/12 07:29:08;;;;;;;2.45;0.70;;;20.20;88.50;;;;;;4960453;28;20138;-92
2022/05/12 07:31:33;;;;;;;3.10;0.73;;;20.20;88.10;;;;;;4976754;28;20486;-92
2022/05/12 07:34:00;;;;;;;5.85;1.00;;;20.20;87.60;;;;;;4955915;28;20038;-88
2022/05/12 07:36:30;;;;;;;2.53;0.75;;;20.20;87.60;;;;;;4982394;28;20022;-87
2022/05/12 07:38:56;;;;;;;2.20;0.75;;;20.20;87.40;;;;;;4976236;28;20034;-91
2022/05/12 07:41:23;;;;;;;2.65;0.43;;;20.20;87.40;;;;;;4973840;28;20035;-91
2022/05/12 07:43:51;;;;;;;1.73;0.73;;;20.20;87.40;;;;;;4968826;28;20026;-90
2022/05/12 07:46:19;;;;;;;1.83;0.60;;;20.20;87.00;;;;;;4971924;28;20031;-89
2022/05/12 07:48:46;;;;;;;2.72;0.60;;;20.20;87.30;;;;;;4967257;28;20035;-90
2022/05/12 07:51:12;;;;;;;1.13;0.50;;;20.20;87.90;;;;;;4971442;28;20731;-90
2022/05/12 07:53:40;;;;;;;1.10;0.70;;;20.20;88.20;;;;;;4966619;28;20023;-88
2022/05/12 07:56:07;;;;;;;3.10;0.90;;;20.30;87.80;;;;;;4964750;28;20031;-86
2022/05/12 07:58:33;;;;;;;2.47;0.55;;;20.30;88.10;;;;;;4960669;28;20038;-84
2022/05/12 08:00:59;;;;;;;4.22;0.93;;;20.30;88.20;;;;;;4952111;28;20058;-86
2022/05/12 08:03:26;;;;;;;3.72;0.60;;;20.30;88.10;;;;;;4966333;28;20061;-82
2022/05/12 08:05:53;;;;;;;2.90;0.90;;;20.40;88.80;;;;;;4973197;28;20029;-82
2022/05/12 08:08:19;;;;;;;3.53;0.55;;;20.40;88.00;;;;;;4974040;28;20034;-82
2022/05/12 08:10:44;;;;;;;4.22;0.50;;;20.40;87.70;;;;;;4974068;28;20030;-82
2022/05/12 08:13:16;;;;;;;5.30;0.73;;;20.40;88.00;;;;;;4973298;28;20372;-85
2022/05/12 08:15:46;;;;;;;2.90;0.82;;;20.50;87.60;;;;;;4974527;28;20019;-83
2022/05/12 08:18:12;;;;;;;1.92;0.73;;;20.50;87.40;;;;;;4956274;28;20031;-81
2022/05/12 08:20:38;;;;;;;1.73;0.80;;;20.50;87.30;;;;;;4951390;28;20118;-81
2022/05/12 08:23:05;;;;;;;2.55;0.60;;;20.60;87.80;;;;;;4964436;28;20174;-85
2022/05/12 08:25:31;;;;;;;1.38;0.60;;;20.70;88.20;;;;;;4967450;28;20134;-85
2022/05/12 08:27:57;;;;;;;2.63;0.95;;;20.70;88.70;;;;;;4970204;28;20054;-85
2022/05/12 08:30:23;;;;;;;1.05;0.75;;;20.80;88.20;;;;;;4965715;28;20035;-84
2022/05/12 08:32:51;;;;;;;2.22;0.70;;;20.80;86.20;;;;;;4976770;28;20023;-87
2022/05/12 08:35:17;;;;;;;2.58;0.60;;;20.90;86.40;;;;;;4980158;28;20118;-89
2022/05/12 08:37:43;;;;;;;3.22;0.63;;;20.90;86.10;;;;;;4985509;28;20077;-86
2022/05/12 08:40:20;;;;;;;2.83;0.60;;;20.90;85.80;;;;;;4978959;28;20046;-90
2022/05/12 08:42:47;;;;;;;3.65;0.80;;;20.90;85.30;;;;;;4971808;28;20129;-87
2022/05/12 08:45:17;;;;;;;3.13;0.63;;;20.90;86.40;;;;;;4960166;28;20117;-86
2022/05/12 08:47:47;;;;;;;3.95;0.60;;;20.90;86.30;;;;;;4975101;28;20019;-87
2022/05/12 08:50:23;;;;;;;2.88;0.70;;;20.90;87.00;;;;;;4975700;28;20065;-86
2022/05/12 08:52:53;;;;;;;5.45;1.10;;;21.00;87.80;;;;;;4979611;28;20042;-85
2022/05/12 08:55:28;;;;;;;2.60;0.80;;;21.10;87.70;;;;;;4977772;28;20018;-83
2022/05/12 08:58:09;;;;;;;2.17;0.70;;;21.10;87.20;;;;;;4978029;28;20077;-83
2022/05/12 09:00:49;;;;;;;2.28;0.70;;;21.20;87.80;;;;;;4963806;28;20031;-84
2022/05/12 09:03:36;;;;;;;5.07;0.90;;;21.30;86.80;;;;;;4962638;28;20027;-84
2022/05/12 09:06:31;;;;;;;2.22;0.70;;;21.40;86.50;;;;;;4962213;28;20113;-81
2022/05/12 09:09:13;;;;;;;4.35;0.80;;;21.50;85.20;;;;;;4945017;28;20089;-82
2022/05/12 09:12:17;;;;;;;1.48;0.70;;;21.60;84.40;;;;;;4978272;28;20107;-78
2022/05/12 09:15:00;;;;;;;0.82;0.55;;;21.60;84.70;;;;;;4978949;28;20065;-80
2022/05/12 09:17:56;;;;;;;2.35;0.70;;;21.90;84.30;;;;;;4977662;28;20031;-82
2022/05/12 09:20:23;;;;;;;2.63;0.70;;;22.10;84.20;;;;;;4974535;28;20049;-82
2022/05/12 09:22:49;;;;;;;4.90;0.88;;;22.10;82.90;;;;;;4977001;28;20042;-82
2022/05/12 09:25:42;;;;;;;3.35;1.30;;;22.10;82.40;;;;;;4982937;28;20022;-81
2022/05/12 09:28:35;;;;;;;4.93;1.20;;;22.10;82.10;;;;;;4982703;28;20082;-82
2022/05/12 09:31:15;;;;;;;1.73;1.05;;;22.10;81.10;;;;;;4981192;28;20037;-82
2022/05/12 09:33:41;;;;;;;2.90;0.98;;;22.10;81.20;;;;;;5001200;28;20038;-85
2022/05/12 09:36:19;;;;;;;2.88;0.80;;;22.10;81.50;;;;;;4986130;28;20041;-84
2022/05/12 09:38:46;;;;;;;3.30;1.00;;;22.10;81.60;;;;;;4964021;28;20014;-85
2022/05/12 09:41:21;;;;;;;1.88;1.10;;;22.10;79.60;;;;;;4979808;28;20069;-84
2022/05/12 09:43:51;;;;;;;2.28;0.80;;;22.20;80.00;;;;;;4981033;28;20039;-82
2022/05/12 09:46:16;;;;;;;3.83;0.90;;;22.30;79.00;;;;;;4980946;28;20026;-84
2022/05/12 09:48:43;;;;;;;5.60;1.08;;;22.40;78.10;;;;;;4979452;28;20065;-84
2022/05/12 09:51:23;;;;;;;1.45;0.50;;;22.30;78.10;;;;;;5003561;28;20563;-89
2022/05/12 09:53:51;;;;;;;2.35;1.00;;;22.20;79.40;;;;;;4988840;28;20030;-88
2022/05/12 09:56:32;;;;;;;2.70;0.90;;;22.10;78.60;;;;;;5000236;28;20027;-90
2022/05/12 09:59:12;;;;;;;2.80;1.63;;;22.00;79.10;;;;;;4998240;28;20042;-87
2022/05/12 10:01:58;;;;;;;1.52;0.77;;;22.10;79.60;;;;;;4991609;28;20052;-85
2022/05/12 10:08:14;;;;;;;3.55;1.30;;;22.20;77.80;;;;;;4980379;28;20041;-85
2022/05/12 10:10:43;;;;;;;4.35;0.63;;;22.30;78.10;;;;;;4961964;28;20031;-84
2022/05/12 10:13:50;;;;;;;1.85;0.80;;;22.40;76.90;;;;;;4961929;28;20117;-84
2022/05/12 10:16:21;;;;;;;2.42;0.75;;;22.50;76.90;;;;;;4950991;28;20473;-86
2022/05/12 10:19:12;;;;;;;1.08;0.80;;;22.50;77.40;;;;;;4933151;29;20055;-83
2022/05/12 10:21:50;;;;;;;2.50;0.82;;;22.50;77.00;;;;;;4931417;29;20047;-84
2022/05/12 10:24:55;;;;;;;0.90;0.68;;;22.70;75.80;;;;;;4944671;28;20074;-84
2022/05/12 10:27:48;;;;;;;3.25;2.33;;;22.70;75.60;;;;;;4973102;28;20022;-83
2022/05/12 10:30:59;;;;;;;4.70;2.20;;;22.80;75.20;;;;;;4976341;28;20452;-85
2022/05/12 10:33:35;;;;;;;0.88;0.80;;;22.50;74.30;;;;;;4903000;29;20032;-85
2022/05/12 10:36:33;;;;;;;2.58;1.02;;;22.40;75.20;;;;;;4899960;29;20120;-85
2022/05/12 10:39:33;;;;;;;3.20;0.93;;;22.30;75.30;;;;;;4891687;29;20032;-88
2022/05/12 10:42:24;;;;;;;2.38;1.10;;;22.40;76.20;;;;;;4899453;29;20044;-85
2022/05/12 10:45:07;;;;;;;2.03;0.80;;;22.40;75.90;;;;;;4881074;29;20481;-84
2022/05/12 10:47:51;;;;;;;4.63;1.30;;;22.40;76.00;;;;;;4883654;29;20114;-84
2022/05/12 10:50:53;;;;;;;;;;;;;;;;;;;;;
2022/05/12 10:54:16;;;;;;;;;;;;;;;;;;;;;
2022/05/12 10:57:09;;;;;;;;;;;;;;;;;;;;;
2022/05/12 11:00:04;;;;;;;4.50;0.98;;;22.40;76.10;;;;;;4896592;29;20039;-84
2022/05/12 11:02:42;;;;;;;2.63;0.90;;;22.40;76.00;;;;;;4897771;29;20039;-83
2022/05/12 11:05:31;;;;;;;2.45;1.00;;;22.40;75.40;;;;;;4892294;29;20044;-87
2022/05/12 11:08:08;;;;;;;3.38;1.98;;;22.40;74.50;;;;;;4883717;29;20029;-86
2022/05/12 11:10:44;;;;;;;7.13;0.98;;;22.40;74.20;;;;;;4935253;28;20035;-85
2022/05/12 11:13:57;;;;;;;;;;;;;;;;;;;;;
2022/05/12 11:16:48;;;;;;;2.72;1.10;;;22.50;74.00;;;;;;4970511;28;20027;-87
2022/05/12 11:19:22;;;;;;;3.75;0.82;;;22.50;74.30;;;;;;4973115;28;20026;-87
2022/05/12 11:22:07;;;;;;;2.67;1.15;;;22.60;74.40;;;;;;4973628;28;20046;-86
2022/05/12 11:24:58;;;;;;;1.77;0.80;;;22.70;74.50;;;;;;4965452;28;20030;-90
2022/05/12 11:29:41;;;;;;;1.00;0.77;;;22.70;73.90;;;;;;4956458;28;20019;-86
2022/05/12 11:30:51;;;;;;;1.75;0.80;;;22.80;74.10;;;;;;4970848;28;20536;-86
2022/05/12 11:33:19;;;;;;;;;;;22.90;72.90;;;;;;4974538;28;20023;-90
2022/05/12 11:35:51;;;;;;;4.22;0.80;;;23.00;72.30;;;;;;4961877;28;19914;-95
2022/05/12 11:38:39;;;;;;;4.10;0.80;;;22.90;73.80;;;;;;4979095;28;20476;-89
2022/05/12 11:41:39;;;;;;;1.33;0.73;;;23.00;72.90;;;;;;4959843;28;20030;-87
2022/05/12 11:44:34;;;;;;;2.15;0.70;;;23.00;71.20;;;;;;4968521;28;20046;-92
2022/05/12 11:47:18;;;;;;;1.13;0.80;;;23.00;71.40;;;;;;4958711;28;20023;-96
2022/05/12 11:49:50;;;;;;;2.88;0.80;;;23.10;70.70;;;;;;4971964;28;20039;-88
2022/05/12 11:52:27;;;;;;;1.00;0.88;;;23.10;71.10;;;;;;4958312;28;20031;-89
2022/05/12 11:55:06;;;;;;;6.00;0.70;;;23.20;70.80;;;;;;4947075;28;20464;-89
2022/05/12 11:57:39;;;;;;;4.25;1.17;;;23.20;70.80;;;;;;4973389;28;20050;-88
2022/05/12 12:00:12;;;;;;;1.67;0.70;;;23.20;70.30;;;;;;4955277;28;20042;-91
2022/05/12 12:02:47;;;;;;;2.60;0.90;;;23.30;69.80;;;;;;4972756;28;20037;-89
2022/05/12 12:05:40;;;;;;;2.45;1.00;;;23.40;70.10;;;;;;4976240;28;20039;-93
2022/05/12 12:08:30;;;;;;;1.45;0.80;;;23.60;71.10;;;;;;4986716;28;20037;-92
2022/05/12 12:11:15;;;;;;;1.58;0.82;;;23.60;70.10;;;;;;4978240;28;20101;-90
2022/05/12 12:13:43;;;;;;;6.38;1.70;;;23.70;69.60;;;;;;4963806;28;20035;-91
2022/05/12 12:16:15;;;;;;;2.72;1.33;;;23.80;69.50;;;;;;4984597;28;20057;-89
2022/05/12 12:18:41;;;;;;;4.35;0.77;;;23.80;68.60;;;;;;4977363;28;20039;-85
2022/05/12 12:21:43;;;;;;;3.85;1.00;;;23.90;68.40;;;;;;4956357;28;20058;-89
2022/05/12 12:24:21;;;;;;;3.25;0.80;;;24.10;67.40;;;;;;4970570;28;20051;-87
2022/05/12 12:26:55;;;;;;;1.92;0.80;;;24.20;66.30;;;;;;4961672;28;20096;-86
2022/05/12 12:29:38;;;;;;;2.90;1.00;;;24.40;66.00;;;;;;4978478;28;20051;-95
2022/05/12 12:32:31;;;;;;;3.67;0.95;;;24.40;65.90;;;;;;4966605;28;20085;-86
2022/05/12 12:35:25;;;;;;;3.72;0.95;;;24.40;65.80;;;;;;4975041;28;20078;-85
2022/05/12 12:37:51;;;;;;;10.60;1.45;;;24.50;65.60;;;;;;4977728;28;20490;-86
2022/05/12 12:40:32;;;;;;;2.35;0.80;;;24.70;65.40;;;;;;4957825;29;20023;-86
2022/05/12 12:43:14;;;;;;;1.08;0.70;;;25.00;63.40;;;;;;4964399;28;20035;-86
2022/05/12 12:45:47;;;;;;;3.35;0.85;;;25.20;63.80;;;;;;4977436;28;20038;-91
2022/05/12 12:48:18;;;;;;;2.60;0.90;;;25.40;63.10;;;;;;4976283;28;20086;-84
2022/05/12 12:50:53;;;;;;;1.40;0.80;;;25.50;62.30;;;;;;4974501;28;20079;-84
2022/05/12 12:56:31;;;;;;;10.82;1.10;;;25.80;61.30;;;;;;4973366;28;20118;-80
2022/05/12 12:59:18;;;;;;;5.18;1.15;;;25.80;60.70;;;;;;4954155;29;20461;-78
2022/05/12 13:01:52;;;;;;;2.03;0.88;;;26.10;59.90;;;;;;4963953;28;20051;-78
2022/05/12 13:04:33;;;;;;;2.47;0.90;;;26.00;60.30;;;;;;4972330;28;20110;-78
2022/05/12 13:07:06;;;;;;;1.40;0.88;;;26.10;60.40;;;;;;4959355;28;20027;-80
2022/05/12 13:09:37;;;;;;;2.08;0.95;;;26.00;60.80;;;;;;4972576;28;20035;-81
2022/05/12 13:12:18;;;;;;;3.42;0.90;;;26.00;60.10;;;;;;4953599;29;20406;-80
2022/05/12 13:14:49;;;;;;;3.65;1.00;;;26.30;60.00;;;;;;4975567;28;20082;-80
2022/05/12 13:17:23;;;;;;;2.30;0.88;;;26.50;58.90;;;;;;4974392;28;20063;-79
2022/05/12 13:19:49;;;;;;;5.57;0.90;;;26.50;59.20;;;;;;4975092;28;20039;-79
2022/05/12 13:22:36;;;;;;;2.05;0.98;;;26.80;58.90;;;;;;4975493;28;20054;-79
2022/05/12 13:25:02;;;;;;;3.47;0.80;;;26.90;58.00;;;;;;4970250;28;20035;-79
2022/05/12 13:27:37;;;;;;;6.20;1.70;;;27.30;57.40;;;;;;4967645;28;20019;-79
2022/05/12 13:30:06;;;;;;;4.55;1.25;;;27.70;57.10;;;;;;4966211;28;20035;-80
2022/05/12 13:32:45;;;;;;;3.40;1.10;;;27.90;56.40;;;;;;4969095;28;20026;-78